Hawks, Michigan
Current Conditions -  °F | °C
As of 8:45 PM on Friday 24 Oct 2014 (Local Time) from KPZQ Reporting Station
Broken Clouds Broken Clouds  
Wind Chill:   Ceiling: 2000
Heat Index:   Visibility: 10mi
Dew Point:   Wind: 0mph
Humidity: 100%   Direction: 350°N
Pressure: 29.92"   Gusts: NA
Location:  45.3°N, 83.89°W
Report Text: KPZQ 250045Z AUTO 35000KT 10SM BKN020 09/09 A2992 RMK AO2
Loading
Personal Weather Stations






























Interactive Weather Map
Tropical Storm Tracking
New forecast layout! Learn more

10-Day Weather Forecast

Advertisements
Track Severe Weather on mobile